sensor_id;sensor_type;location;lat;lon;timestamp;P1;durP1;ratioP1;P2;durP2;ratioP2
17890;SDS011;9071;48.220;14.480;2024-01-06T00:03:28;51.70;;;25.07;;
17890;SDS011;9071;48.220;14.480;2024-01-06T00:08:31;36.50;;;21.03;;
17890;SDS011;9071;48.220;14.480;2024-01-06T00:13:33;30.60;;;17.37;;
17890;SDS011;9071;48.220;14.480;2024-01-06T00:18:36;105.30;;;47.93;;
17890;SDS011;9071;48.220;14.480;2024-01-06T00:23:39;45.03;;;25.87;;
17890;SDS011;9071;48.220;14.480;2024-01-06T00:28:42;28.03;;;17.23;;
17890;SDS011;9071;48.220;14.480;2024-01-06T00:33:44;27.33;;;15.67;;
17890;SDS011;9071;48.220;14.480;2024-01-06T00:38:48;23.83;;;15.83;;
17890;SDS011;9071;48.220;14.480;2024-01-06T00:43:50;27.30;;;16.17;;
17890;SDS011;9071;48.220;14.480;2024-01-06T00:48:52;25.37;;;15.80;;
17890;SDS011;9071;48.220;14.480;2024-01-06T00:53:55;23.50;;;15.10;;
17890;SDS011;9071;48.220;14.480;2024-01-06T00:58:57;26.87;;;15.87;;
17890;SDS011;9071;48.220;14.480;2024-01-06T01:03:59;22.70;;;14.60;;
17890;SDS011;9071;48.220;14.480;2024-01-06T01:09:03;24.43;;;13.80;;
17890;SDS011;9071;48.220;14.480;2024-01-06T01:14:05;22.37;;;14.97;;
17890;SDS011;9071;48.220;14.480;2024-01-06T01:19:07;23.17;;;14.43;;
17890;SDS011;9071;48.220;14.480;2024-01-06T01:24:11;20.60;;;14.50;;
17890;SDS011;9071;48.220;14.480;2024-01-06T01:29:13;23.23;;;14.80;;
17890;SDS011;9071;48.220;14.480;2024-01-06T01:34:15;23.37;;;14.97;;
17890;SDS011;9071;48.220;14.480;2024-01-06T01:39:19;22.27;;;14.87;;
17890;SDS011;9071;48.220;14.480;2024-01-06T01:44:21;22.97;;;14.87;;
17890;SDS011;9071;48.220;14.480;2024-01-06T01:49:23;22.27;;;15.23;;
17890;SDS011;9071;48.220;14.480;2024-01-06T01:54:26;23.70;;;15.40;;
17890;SDS011;9071;48.220;14.480;2024-01-06T01:59:29;21.30;;;14.83;;
17890;SDS011;9071;48.220;14.480;2024-01-06T02:04:31;26.17;;;15.40;;
17890;SDS011;9071;48.220;14.480;2024-01-06T02:09:34;21.87;;;15.23;;
17890;SDS011;9071;48.220;14.480;2024-01-06T02:14:36;25.20;;;15.03;;
17890;SDS011;9071;48.220;14.480;2024-01-06T02:19:38;20.97;;;14.23;;
17890;SDS011;9071;48.220;14.480;2024-01-06T02:24:42;24.10;;;14.37;;
17890;SDS011;9071;48.220;14.480;2024-01-06T02:29:44;21.23;;;14.53;;
17890;SDS011;9071;48.220;14.480;2024-01-06T02:34:46;23.33;;;14.80;;
17890;SDS011;9071;48.220;14.480;2024-01-06T02:39:49;23.67;;;15.57;;
17890;SDS011;9071;48.220;14.480;2024-01-06T02:44:52;27.83;;;17.30;;
17890;SDS011;9071;48.220;14.480;2024-01-06T02:49:54;27.60;;;16.53;;
17890;SDS011;9071;48.220;14.480;2024-01-06T02:54:57;27.87;;;16.90;;
17890;SDS011;9071;48.220;14.480;2024-01-06T03:00:01;27.20;;;16.37;;
17890;SDS011;9071;48.220;14.480;2024-01-06T03:05:03;23.80;;;17.07;;
17890;SDS011;9071;48.220;14.480;2024-01-06T03:10:07;25.40;;;17.03;;
17890;SDS011;9071;48.220;14.480;2024-01-06T03:15:10;25.20;;;15.90;;
17890;SDS011;9071;48.220;14.480;2024-01-06T03:20:12;22.10;;;15.57;;
17890;SDS011;9071;48.220;14.480;2024-01-06T03:25:15;22.27;;;15.37;;
17890;SDS011;9071;48.220;14.480;2024-01-06T03:30:17;25.87;;;15.63;;
17890;SDS011;9071;48.220;14.480;2024-01-06T03:35:19;21.10;;;14.23;;
17890;SDS011;9071;48.220;14.480;2024-01-06T03:40:23;21.23;;;14.97;;
17890;SDS011;9071;48.220;14.480;2024-01-06T03:45:25;23.07;;;14.70;;
17890;SDS011;9071;48.220;14.480;2024-01-06T03:50:27;26.00;;;15.57;;
17890;SDS011;9071;48.220;14.480;2024-01-06T03:55:31;22.10;;;13.73;;
17890;SDS011;9071;48.220;14.480;2024-01-06T04:00:33;25.33;;;14.77;;
17890;SDS011;9071;48.220;14.480;2024-01-06T04:05:35;23.90;;;14.63;;
17890;SDS011;9071;48.220;14.480;2024-01-06T04:10:39;23.87;;;15.27;;
17890;SDS011;9071;48.220;14.480;2024-01-06T04:15:41;24.20;;;15.50;;
17890;SDS011;9071;48.220;14.480;2024-01-06T04:20:44;23.07;;;15.13;;
17890;SDS011;9071;48.220;14.480;2024-01-06T04:25:47;24.57;;;16.07;;
17890;SDS011;9071;48.220;14.480;2024-01-06T04:30:49;27.30;;;17.77;;
17890;SDS011;9071;48.220;14.480;2024-01-06T04:35:51;21.47;;;15.33;;
17890;SDS011;9071;48.220;14.480;2024-01-06T04:40:55;27.07;;;17.10;;
17890;SDS011;9071;48.220;14.480;2024-01-06T04:45:57;22.57;;;15.43;;
17890;SDS011;9071;48.220;14.480;2024-01-06T04:50:59;23.60;;;16.27;;
17890;SDS011;9071;48.220;14.480;2024-01-06T04:56:05;23.70;;;16.23;;
17890;SDS011;9071;48.220;14.480;2024-01-06T05:01:07;21.27;;;15.27;;
17890;SDS011;9071;48.220;14.480;2024-01-06T05:06:09;25.27;;;15.37;;
17890;SDS011;9071;48.220;14.480;2024-01-06T05:11:12;22.60;;;14.80;;
17890;SDS011;9071;48.220;14.480;2024-01-06T05:16:15;19.23;;;13.67;;
17890;SDS011;9071;48.220;14.480;2024-01-06T05:21:17;23.20;;;14.50;;
17890;SDS011;9071;48.220;14.480;2024-01-06T05:26:20;23.00;;;15.43;;
17890;SDS011;9071;48.220;14.480;2024-01-06T05:31:22;25.40;;;15.90;;
17890;SDS011;9071;48.220;14.480;2024-01-06T05:36:24;26.27;;;15.33;;
17890;SDS011;9071;48.220;14.480;2024-01-06T05:41:28;23.73;;;15.33;;
17890;SDS011;9071;48.220;14.480;2024-01-06T05:46:30;23.00;;;15.53;;
17890;SDS011;9071;48.220;14.480;2024-01-06T05:51:32;22.53;;;16.17;;
17890;SDS011;9071;48.220;14.480;2024-01-06T05:56:35;25.33;;;16.43;;
17890;SDS011;9071;48.220;14.480;2024-01-06T06:01:37;24.73;;;16.60;;
17890;SDS011;9071;48.220;14.480;2024-01-06T06:06:39;24.10;;;16.97;;
17890;SDS011;9071;48.220;14.480;2024-01-06T06:11:43;29.20;;;16.67;;
17890;SDS011;9071;48.220;14.480;2024-01-06T06:16:45;25.53;;;16.47;;
17890;SDS011;9071;48.220;14.480;2024-01-06T06:21:48;27.90;;;17.93;;
17890;SDS011;9071;48.220;14.480;2024-01-06T06:26:51;23.53;;;16.17;;
17890;SDS011;9071;48.220;14.480;2024-01-06T06:31:53;25.63;;;17.93;;
17890;SDS011;9071;48.220;14.480;2024-01-06T06:36:55;27.87;;;18.07;;
17890;SDS011;9071;48.220;14.480;2024-01-06T06:42:00;25.20;;;17.57;;
17890;SDS011;9071;48.220;14.480;2024-01-06T06:47:02;28.90;;;17.43;;
17890;SDS011;9071;48.220;14.480;2024-01-06T06:52:05;31.83;;;17.40;;
17890;SDS011;9071;48.220;14.480;2024-01-06T06:57:10;28.30;;;16.70;;
17890;SDS011;9071;48.220;14.480;2024-01-06T07:02:12;32.70;;;17.83;;
17890;SDS011;9071;48.220;14.480;2024-01-06T07:07:14;29.53;;;17.33;;
17890;SDS011;9071;48.220;14.480;2024-01-06T07:12:17;33.20;;;21.23;;
17890;SDS011;9071;48.220;14.480;2024-01-06T07:17:19;30.83;;;21.27;;
17890;SDS011;9071;48.220;14.480;2024-01-06T07:22:21;29.67;;;20.60;;
17890;SDS011;9071;48.220;14.480;2024-01-06T07:27:25;30.13;;;20.13;;
17890;SDS011;9071;48.220;14.480;2024-01-06T07:32:27;29.80;;;19.10;;
17890;SDS011;9071;48.220;14.480;2024-01-06T07:37:29;26.43;;;17.67;;
17890;SDS011;9071;48.220;14.480;2024-01-06T07:42:32;27.90;;;19.33;;
17890;SDS011;9071;48.220;14.480;2024-01-06T07:47:34;32.13;;;20.37;;
17890;SDS011;9071;48.220;14.480;2024-01-06T07:52:37;27.87;;;18.87;;
17890;SDS011;9071;48.220;14.480;2024-01-06T07:57:41;35.10;;;20.23;;
17890;SDS011;9071;48.220;14.480;2024-01-06T08:02:44;26.47;;;17.60;;
17890;SDS011;9071;48.220;14.480;2024-01-06T08:07:47;29.70;;;19.23;;
17890;SDS011;9071;48.220;14.480;2024-01-06T08:12:51;25.97;;;17.43;;
17890;SDS011;9071;48.220;14.480;2024-01-06T08:17:54;23.17;;;17.50;;
17890;SDS011;9071;48.220;14.480;2024-01-06T08:22:56;26.27;;;18.03;;
17890;SDS011;9071;48.220;14.480;2024-01-06T08:27:59;22.47;;;16.50;;
17890;SDS011;9071;48.220;14.480;2024-01-06T08:33:01;26.60;;;16.27;;
17890;SDS011;9071;48.220;14.480;2024-01-06T08:38:04;26.07;;;15.47;;
17890;SDS011;9071;48.220;14.480;2024-01-06T08:43:07;22.93;;;16.10;;
17890;SDS011;9071;48.220;14.480;2024-01-06T08:48:09;24.03;;;16.37;;
17890;SDS011;9071;48.220;14.480;2024-01-06T08:53:11;32.73;;;19.20;;
17890;SDS011;9071;48.220;14.480;2024-01-06T08:58:15;26.80;;;17.73;;
17890;SDS011;9071;48.220;14.480;2024-01-06T09:03:17;26.73;;;17.30;;
17890;SDS011;9071;48.220;14.480;2024-01-06T09:08:25;28.47;;;16.73;;
17890;SDS011;9071;48.220;14.480;2024-01-06T09:13:28;25.40;;;17.73;;
17890;SDS011;9071;48.220;14.480;2024-01-06T09:18:31;28.10;;;17.87;;
17890;SDS011;9071;48.220;14.480;2024-01-06T09:23:33;25.53;;;19.73;;
17890;SDS011;9071;48.220;14.480;2024-01-06T09:28:36;29.10;;;19.37;;
17890;SDS011;9071;48.220;14.480;2024-01-06T09:33:39;26.90;;;18.40;;
17890;SDS011;9071;48.220;14.480;2024-01-06T09:38:41;26.93;;;19.07;;
17890;SDS011;9071;48.220;14.480;2024-01-06T09:43:45;24.67;;;18.13;;
17890;SDS011;9071;48.220;14.480;2024-01-06T09:48:47;27.33;;;18.93;;
17890;SDS011;9071;48.220;14.480;2024-01-06T09:53:56;26.47;;;19.10;;
17890;SDS011;9071;48.220;14.480;2024-01-06T09:59:01;28.33;;;18.90;;
17890;SDS011;9071;48.220;14.480;2024-01-06T10:04:04;27.33;;;17.97;;
17890;SDS011;9071;48.220;14.480;2024-01-06T10:09:06;23.33;;;18.23;;
17890;SDS011;9071;48.220;14.480;2024-01-06T10:14:09;26.87;;;19.17;;
17890;SDS011;9071;48.220;14.480;2024-01-06T10:19:13;28.03;;;19.37;;
17890;SDS011;9071;48.220;14.480;2024-01-06T10:24:16;23.57;;;19.10;;
17890;SDS011;9071;48.220;14.480;2024-01-06T10:29:20;26.30;;;18.17;;
17890;SDS011;9071;48.220;14.480;2024-01-06T10:34:23;28.60;;;20.50;;
17890;SDS011;9071;48.220;14.480;2024-01-06T10:39:25;27.73;;;19.77;;
17890;SDS011;9071;48.220;14.480;2024-01-06T10:44:31;36.70;;;21.80;;
17890;SDS011;9071;48.220;14.480;2024-01-06T10:49:33;26.33;;;18.17;;
17890;SDS011;9071;48.220;14.480;2024-01-06T10:54:37;27.77;;;20.20;;
17890;SDS011;9071;48.220;14.480;2024-01-06T10:59:42;29.13;;;20.67;;
17890;SDS011;9071;48.220;14.480;2024-01-06T11:04:45;27.00;;;19.60;;
17890;SDS011;9071;48.220;14.480;2024-01-06T11:09:50;28.60;;;19.70;;
17890;SDS011;9071;48.220;14.480;2024-01-06T11:14:56;27.33;;;19.93;;
17890;SDS011;9071;48.220;14.480;2024-01-06T11:20:04;29.27;;;19.73;;
17890;SDS011;9071;48.220;14.480;2024-01-06T11:25:08;28.07;;;18.67;;
17890;SDS011;9071;48.220;14.480;2024-01-06T11:30:22;30.07;;;20.07;;
17890;SDS011;9071;48.220;14.480;2024-01-06T11:35:25;28.17;;;17.97;;
17890;SDS011;9071;48.220;14.480;2024-01-06T11:40:32;25.40;;;17.53;;
17890;SDS011;9071;48.220;14.480;2024-01-06T11:45:37;27.30;;;17.23;;
17890;SDS011;9071;48.220;14.480;2024-01-06T11:50:41;25.83;;;17.50;;
17890;SDS011;9071;48.220;14.480;2024-01-06T11:55:44;26.13;;;16.73;;
17890;SDS011;9071;48.220;14.480;2024-01-06T12:00:55;24.07;;;16.20;;
17890;SDS011;9071;48.220;14.480;2024-01-06T12:06:01;27.33;;;15.33;;
17890;SDS011;9071;48.220;14.480;2024-01-06T12:11:03;23.53;;;14.60;;
17890;SDS011;9071;48.220;14.480;2024-01-06T12:16:09;27.03;;;15.87;;
17890;SDS011;9071;48.220;14.480;2024-01-06T12:21:11;33.57;;;18.93;;
17890;SDS011;9071;48.220;14.480;2024-01-06T12:26:13;30.60;;;16.53;;
17890;SDS011;9071;48.220;14.480;2024-01-06T12:31:16;16.57;;;11.17;;
17890;SDS011;9071;48.220;14.480;2024-01-06T12:36:19;15.33;;;9.40;;
17890;SDS011;9071;48.220;14.480;2024-01-06T12:41:21;15.60;;;9.97;;
17890;SDS011;9071;48.220;14.480;2024-01-06T12:46:24;18.33;;;11.37;;
17890;SDS011;9071;48.220;14.480;2024-01-06T12:51:26;15.33;;;10.57;;
17890;SDS011;9071;48.220;14.480;2024-01-06T12:56:29;15.70;;;9.60;;
17890;SDS011;9071;48.220;14.480;2024-01-06T13:01:32;16.57;;;10.70;;
17890;SDS011;9071;48.220;14.480;2024-01-06T13:06:34;26.33;;;15.67;;
17890;SDS011;9071;48.220;14.480;2024-01-06T13:11:36;12.47;;;8.83;;
17890;SDS011;9071;48.220;14.480;2024-01-06T13:16:40;50.50;;;26.43;;
17890;SDS011;9071;48.220;14.480;2024-01-06T13:21:42;17.23;;;11.60;;
17890;SDS011;9071;48.220;14.480;2024-01-06T13:26:44;22.90;;;15.10;;
17890;SDS011;9071;48.220;14.480;2024-01-06T13:31:48;17.03;;;12.37;;
17890;SDS011;9071;48.220;14.480;2024-01-06T13:36:50;22.30;;;13.00;;
17890;SDS011;9071;48.220;14.480;2024-01-06T13:41:52;23.30;;;11.87;;
17890;SDS011;9071;48.220;14.480;2024-01-06T13:46:55;10.77;;;8.83;;
17890;SDS011;9071;48.220;14.480;2024-01-06T13:51:57;16.87;;;11.53;;
17890;SDS011;9071;48.220;14.480;2024-01-06T13:57:00;17.33;;;9.53;;
17890;SDS011;9071;48.220;14.480;2024-01-06T14:02:03;9.33;;;7.63;;
17890;SDS011;9071;48.220;14.480;2024-01-06T14:07:06;6.87;;;5.73;;
17890;SDS011;9071;48.220;14.480;2024-01-06T14:12:10;7.30;;;5.63;;
17890;SDS011;9071;48.220;14.480;2024-01-06T14:17:15;13.83;;;8.83;;
17890;SDS011;9071;48.220;14.480;2024-01-06T14:22:17;8.60;;;6.10;;
17890;SDS011;9071;48.220;14.480;2024-01-06T14:27:19;53.90;;;28.03;;
17890;SDS011;9071;48.220;14.480;2024-01-06T14:32:24;9.97;;;6.30;;
17890;SDS011;9071;48.220;14.480;2024-01-06T14:37:26;6.37;;;4.33;;
17890;SDS011;9071;48.220;14.480;2024-01-06T14:42:28;7.50;;;4.60;;
17890;SDS011;9071;48.220;14.480;2024-01-06T14:47:31;7.60;;;4.33;;
17890;SDS011;9071;48.220;14.480;2024-01-06T14:52:33;6.70;;;4.63;;
17890;SDS011;9071;48.220;14.480;2024-01-06T14:57:35;8.00;;;5.73;;
17890;SDS011;9071;48.220;14.480;2024-01-06T15:02:39;16.70;;;9.60;;
17890;SDS011;9071;48.220;14.480;2024-01-06T15:07:41;10.53;;;7.03;;
17890;SDS011;9071;48.220;14.480;2024-01-06T15:12:43;14.60;;;8.17;;
17890;SDS011;9071;48.220;14.480;2024-01-06T15:17:47;21.20;;;12.77;;
17890;SDS011;9071;48.220;14.480;2024-01-06T15:22:49;8.17;;;5.70;;
17890;SDS011;9071;48.220;14.480;2024-01-06T15:27:51;7.73;;;5.87;;
17890;SDS011;9071;48.220;14.480;2024-01-06T15:32:54;8.50;;;5.70;;
17890;SDS011;9071;48.220;14.480;2024-01-06T15:37:56;11.47;;;7.43;;
17890;SDS011;9071;48.220;14.480;2024-01-06T15:42:58;6.73;;;5.30;;
17890;SDS011;9071;48.220;14.480;2024-01-06T15:48:02;8.00;;;5.87;;
17890;SDS011;9071;48.220;14.480;2024-01-06T15:53:04;13.70;;;7.87;;
17890;SDS011;9071;48.220;14.480;2024-01-06T15:58:06;13.93;;;7.97;;
17890;SDS011;9071;48.220;14.480;2024-01-06T16:03:10;12.23;;;7.47;;
17890;SDS011;9071;48.220;14.480;2024-01-06T16:08:12;22.83;;;10.47;;
17890;SDS011;9071;48.220;14.480;2024-01-06T16:13:14;8.93;;;6.07;;
17890;SDS011;9071;48.220;14.480;2024-01-06T16:18:18;10.87;;;7.70;;
17890;SDS011;9071;48.220;14.480;2024-01-06T16:23:20;9.63;;;6.90;;
17890;SDS011;9071;48.220;14.480;2024-01-06T16:28:24;10.73;;;7.30;;
17890;SDS011;9071;48.220;14.480;2024-01-06T16:33:28;10.57;;;7.47;;
17890;SDS011;9071;48.220;14.480;2024-01-06T16:38:30;12.40;;;8.03;;
17890;SDS011;9071;48.220;14.480;2024-01-06T16:43:34;11.20;;;7.80;;
17890;SDS011;9071;48.220;14.480;2024-01-06T16:48:40;9.90;;;7.73;;
17890;SDS011;9071;48.220;14.480;2024-01-06T16:53:42;9.67;;;7.23;;
17890;SDS011;9071;48.220;14.480;2024-01-06T16:58:44;8.07;;;6.30;;
17890;SDS011;9071;48.220;14.480;2024-01-06T17:03:48;9.13;;;6.70;;
17890;SDS011;9071;48.220;14.480;2024-01-06T17:08:50;12.53;;;8.03;;
17890;SDS011;9071;48.220;14.480;2024-01-06T17:13:53;11.10;;;7.03;;
17890;SDS011;9071;48.220;14.480;2024-01-06T17:18:57;14.53;;;9.20;;
17890;SDS011;9071;48.220;14.480;2024-01-06T17:23:59;12.20;;;8.43;;
17890;SDS011;9071;48.220;14.480;2024-01-06T17:29:01;9.30;;;6.87;;
17890;SDS011;9071;48.220;14.480;2024-01-06T17:34:04;11.20;;;7.60;;
17890;SDS011;9071;48.220;14.480;2024-01-06T17:39:07;10.97;;;8.13;;
17890;SDS011;9071;48.220;14.480;2024-01-06T17:44:10;11.37;;;7.47;;
17890;SDS011;9071;48.220;14.480;2024-01-06T17:49:13;9.67;;;7.47;;
17890;SDS011;9071;48.220;14.480;2024-01-06T17:54:15;9.37;;;7.60;;
17890;SDS011;9071;48.220;14.480;2024-01-06T17:59:17;8.90;;;6.77;;
17890;SDS011;9071;48.220;14.480;2024-01-06T18:04:21;8.90;;;6.33;;
17890;SDS011;9071;48.220;14.480;2024-01-06T18:09:23;9.00;;;7.03;;
17890;SDS011;9071;48.220;14.480;2024-01-06T18:14:27;9.30;;;6.77;;
17890;SDS011;9071;48.220;14.480;2024-01-06T18:19:36;9.43;;;6.20;;
17890;SDS011;9071;48.220;14.480;2024-01-06T18:24:38;10.10;;;7.00;;
17890;SDS011;9071;48.220;14.480;2024-01-06T18:29:42;7.63;;;6.13;;
17890;SDS011;9071;48.220;14.480;2024-01-06T18:34:45;12.70;;;8.43;;
17890;SDS011;9071;48.220;14.480;2024-01-06T18:39:47;8.30;;;6.70;;
17890;SDS011;9071;48.220;14.480;2024-01-06T18:44:49;12.53;;;8.57;;
17890;SDS011;9071;48.220;14.480;2024-01-06T18:49:52;11.07;;;6.50;;
17890;SDS011;9071;48.220;14.480;2024-01-06T18:54:55;10.50;;;7.67;;
17890;SDS011;9071;48.220;14.480;2024-01-06T18:59:57;8.77;;;6.47;;
17890;SDS011;9071;48.220;14.480;2024-01-06T19:05:00;7.67;;;5.70;;
17890;SDS011;9071;48.220;14.480;2024-01-06T19:10:03;8.93;;;6.30;;
17890;SDS011;9071;48.220;14.480;2024-01-06T19:15:05;9.77;;;6.70;;
17890;SDS011;9071;48.220;14.480;2024-01-06T19:20:09;8.83;;;6.73;;
17890;SDS011;9071;48.220;14.480;2024-01-06T19:25:13;12.40;;;8.50;;
17890;SDS011;9071;48.220;14.480;2024-01-06T19:30:15;12.87;;;7.30;;
17890;SDS011;9071;48.220;14.480;2024-01-06T19:35:19;12.53;;;8.57;;
17890;SDS011;9071;48.220;14.480;2024-01-06T19:40:21;8.50;;;6.23;;
17890;SDS011;9071;48.220;14.480;2024-01-06T19:45:23;12.67;;;8.43;;
17890;SDS011;9071;48.220;14.480;2024-01-06T19:50:27;9.73;;;6.90;;
17890;SDS011;9071;48.220;14.480;2024-01-06T19:55:29;13.53;;;7.07;;
17890;SDS011;9071;48.220;14.480;2024-01-06T20:00:31;17.50;;;8.37;;
17890;SDS011;9071;48.220;14.480;2024-01-06T20:05:34;8.93;;;6.37;;
17890;SDS011;9071;48.220;14.480;2024-01-06T20:10:36;10.10;;;6.77;;
17890;SDS011;9071;48.220;14.480;2024-01-06T20:15:38;8.97;;;6.80;;
17890;SDS011;9071;48.220;14.480;2024-01-06T20:20:42;10.73;;;7.33;;
17890;SDS011;9071;48.220;14.480;2024-01-06T20:25:44;9.10;;;7.00;;
17890;SDS011;9071;48.220;14.480;2024-01-06T20:30:46;10.23;;;7.33;;
17890;SDS011;9071;48.220;14.480;2024-01-06T20:35:49;10.93;;;7.53;;
17890;SDS011;9071;48.220;14.480;2024-01-06T20:40:51;12.20;;;7.80;;
17890;SDS011;9071;48.220;14.480;2024-01-06T20:45:53;10.90;;;8.03;;
17890;SDS011;9071;48.220;14.480;2024-01-06T20:50:57;11.63;;;7.40;;
17890;SDS011;9071;48.220;14.480;2024-01-06T20:56:01;8.53;;;6.50;;
17890;SDS011;9071;48.220;14.480;2024-01-06T21:01:03;11.97;;;7.33;;
17890;SDS011;9071;48.220;14.480;2024-01-06T21:06:07;13.03;;;8.00;;
17890;SDS011;9071;48.220;14.480;2024-01-06T21:11:10;15.67;;;9.03;;
17890;SDS011;9071;48.220;14.480;2024-01-06T21:16:12;11.40;;;8.53;;
17890;SDS011;9071;48.220;14.480;2024-01-06T21:21:18;11.27;;;7.80;;
17890;SDS011;9071;48.220;14.480;2024-01-06T21:26:20;11.17;;;8.13;;
17890;SDS011;9071;48.220;14.480;2024-01-06T21:31:22;13.13;;;9.40;;
17890;SDS011;9071;48.220;14.480;2024-01-06T21:36:27;9.70;;;7.20;;
17890;SDS011;9071;48.220;14.480;2024-01-06T21:41:29;11.03;;;7.53;;
17890;SDS011;9071;48.220;14.480;2024-01-06T21:46:31;12.97;;;8.03;;
17890;SDS011;9071;48.220;14.480;2024-01-06T21:51:34;11.43;;;7.83;;
17890;SDS011;9071;48.220;14.480;2024-01-06T21:56:47;11.77;;;8.10;;
17890;SDS011;9071;48.220;14.480;2024-01-06T22:01:49;13.20;;;8.87;;
17890;SDS011;9071;48.220;14.480;2024-01-06T22:06:53;10.50;;;7.73;;
17890;SDS011;9071;48.220;14.480;2024-01-06T22:11:55;13.23;;;8.57;;
17890;SDS011;9071;48.220;14.480;2024-01-06T22:16:57;15.10;;;8.97;;
17890;SDS011;9071;48.220;14.480;2024-01-06T22:22:01;11.47;;;8.30;;
17890;SDS011;9071;48.220;14.480;2024-01-06T22:27:03;12.17;;;8.27;;
17890;SDS011;9071;48.220;14.480;2024-01-06T22:32:06;10.00;;;7.87;;
17890;SDS011;9071;48.220;14.480;2024-01-06T22:37:09;12.00;;;8.40;;
17890;SDS011;9071;48.220;14.480;2024-01-06T22:42:12;14.13;;;8.20;;
17890;SDS011;9071;48.220;14.480;2024-01-06T22:47:14;12.83;;;8.00;;
17890;SDS011;9071;48.220;14.480;2024-01-06T22:52:17;13.47;;;8.50;;
17890;SDS011;9071;48.220;14.480;2024-01-06T22:57:19;10.87;;;7.90;;
17890;SDS011;9071;48.220;14.480;2024-01-06T23:02:21;12.93;;;8.00;;
17890;SDS011;9071;48.220;14.480;2024-01-06T23:07:25;10.97;;;8.10;;
17890;SDS011;9071;48.220;14.480;2024-01-06T23:12:28;11.80;;;7.90;;
17890;SDS011;9071;48.220;14.480;2024-01-06T23:17:30;10.73;;;7.43;;
17890;SDS011;9071;48.220;14.480;2024-01-06T23:22:33;10.43;;;7.40;;
17890;SDS011;9071;48.220;14.480;2024-01-06T23:27:35;8.83;;;6.60;;
17890;SDS011;9071;48.220;14.480;2024-01-06T23:32:38;10.13;;;7.00;;
17890;SDS011;9071;48.220;14.480;2024-01-06T23:37:42;10.93;;;7.10;;
17890;SDS011;9071;48.220;14.480;2024-01-06T23:42:48;12.00;;;6.80;;
17890;SDS011;9071;48.220;14.480;2024-01-06T23:47:50;11.53;;;7.50;;
17890;SDS011;9071;48.220;14.480;2024-01-06T23:52:54;10.20;;;7.20;;
17890;SDS011;9071;48.220;14.480;2024-01-06T23:57:56;12.23;;;7.10;;
